createdAt,value
2018-07-09T00:01:34.227Z,13.00
2018-07-09T00:04:03.224Z,13.00
2018-07-09T00:06:32.207Z,13.00
2018-07-09T00:09:01.203Z,12.90
2018-07-09T00:11:30.947Z,12.90
2018-07-09T00:13:59.993Z,12.90
2018-07-09T00:16:29.045Z,12.80
2018-07-09T00:18:58.795Z,12.80
2018-07-09T00:21:27.842Z,12.80
2018-07-09T00:26:25.491Z,12.70
2018-07-09T00:28:54.445Z,12.70
2018-07-09T00:33:52.123Z,12.70
2018-07-09T00:36:21.141Z,12.70
2018-07-09T00:38:50.246Z,12.60
2018-07-09T00:41:19.310Z,12.60
2018-07-09T00:43:48.429Z,12.60
2018-07-09T00:46:17.696Z,12.60
2018-07-09T00:48:46.947Z,12.60
2018-07-09T00:51:16.051Z,12.60
2018-07-09T00:53:45.127Z,12.60
2018-07-09T00:56:14.344Z,12.60
2018-07-09T00:58:43.315Z,12.60
2018-07-09T01:01:12.288Z,12.50
2018-07-09T01:03:41.294Z,12.60
2018-07-09T01:06:10.324Z,12.60
2018-07-09T01:16:15.317Z,12.50
2018-07-09T01:18:44.287Z,12.50
2018-07-09T01:21:14.390Z,12.50
2018-07-09T01:23:43.382Z,12.50
2018-07-09T01:26:12.380Z,12.40
2018-07-09T01:28:42.134Z,12.50
2018-07-09T01:31:11.085Z,12.40
2018-07-09T01:33:40.119Z,12.40
2018-07-09T01:38:39.065Z,12.40
2018-07-09T01:41:08.105Z,12.40
2018-07-09T01:43:37.041Z,12.40
2018-07-09T01:48:34.784Z,12.30
2018-07-09T01:51:03.744Z,12.30
2018-07-09T01:56:01.338Z,12.30
2018-07-09T01:58:30.433Z,12.40
2018-07-09T02:01:00.092Z,12.30
2018-07-09T02:03:29.088Z,12.40
2018-07-09T02:05:58.228Z,12.40
2018-07-09T02:08:27.439Z,12.40
2018-07-09T02:10:56.467Z,12.40
2018-07-09T02:13:25.534Z,12.40
2018-07-09T02:15:54.529Z,12.50
2018-07-09T02:18:23.550Z,12.50
2018-07-09T02:20:52.635Z,12.50
2018-07-09T02:23:21.799Z,12.60
2018-07-09T02:25:50.919Z,12.50
2018-07-09T02:30:49.113Z,12.60
2018-07-09T02:33:18.229Z,12.70
2018-07-09T02:35:47.331Z,12.70
2018-07-09T02:38:16.358Z,12.70
2018-07-09T02:40:46.268Z,12.70
2018-07-09T02:43:15.266Z,12.70
2018-07-09T02:48:12.917Z,12.70
2018-07-09T02:50:41.936Z,12.70
2018-07-09T02:55:39.587Z,12.60
2018-07-09T02:58:08.566Z,12.70
2018-07-09T03:03:06.419Z,12.70
2018-07-09T03:05:35.497Z,12.70
2018-07-09T03:08:04.631Z,12.80
2018-07-09T03:10:33.844Z,12.90
2018-07-09T03:13:02.951Z,13.10
2018-07-09T03:15:32.016Z,13.20
2018-07-09T03:18:01.495Z,13.40
2018-07-09T03:20:30.464Z,13.60
2018-07-09T03:22:59.468Z,13.80
2018-07-09T03:25:28.437Z,13.80
2018-07-09T03:27:57.417Z,14.00
2018-07-09T03:30:26.796Z,14.00
2018-07-09T03:32:55.918Z,14.20
2018-07-09T03:35:25.170Z,14.30
2018-07-09T03:37:54.227Z,14.40
2018-07-09T03:40:23.318Z,14.50
2018-07-09T03:42:52.332Z,14.60
2018-07-09T03:45:21.356Z,14.60
2018-07-09T03:50:19.020Z,14.70
2018-07-09T03:52:48.135Z,14.80
2018-07-09T03:55:17.142Z,15.00
2018-07-09T03:57:46.242Z,15.00
2018-07-09T04:00:15.345Z,15.10
2018-07-09T04:02:45.025Z,15.20
2018-07-09T04:05:14.191Z,15.30
2018-07-09T04:07:43.183Z,15.40
2018-07-09T04:10:12.189Z,15.50
2018-07-09T04:12:41.321Z,15.50
2018-07-09T04:15:10.355Z,15.70
2018-07-09T04:17:39.364Z,15.80
2018-07-09T04:20:08.347Z,15.80
2018-07-09T04:22:37.323Z,15.90
2018-07-09T04:25:06.286Z,16.00
2018-07-09T04:27:35.230Z,16.10
2018-07-09T04:32:32.846Z,16.40
2018-07-09T04:35:02.023Z,16.50
2018-07-09T04:37:31.104Z,16.50
2018-07-09T04:40:00.147Z,16.60
2018-07-09T04:44:57.916Z,16.90
2018-07-09T04:47:27.139Z,17.00
2018-07-09T04:49:56.205Z,17.00
2018-07-09T04:52:25.156Z,17.00
2018-07-09T04:57:22.802Z,17.30
2018-07-09T04:59:51.961Z,17.40
2018-07-09T05:04:49.650Z,17.50
2018-07-09T05:07:18.724Z,17.50
2018-07-09T05:09:48.043Z,17.70
2018-07-09T05:12:17.271Z,17.70
2018-07-09T05:14:46.497Z,17.80
2018-07-09T05:17:16.282Z,17.90
2018-07-09T05:19:45.315Z,17.90
2018-07-09T05:22:14.328Z,17.90
2018-07-09T05:27:12.699Z,17.90
2018-07-09T05:29:41.691Z,18.00
2018-07-09T05:32:10.664Z,18.00
2018-07-09T05:34:39.655Z,18.10
2018-07-09T05:37:08.688Z,18.10
2018-07-09T05:39:38.323Z,18.20
2018-07-09T05:42:07.332Z,18.20
2018-07-09T05:44:37.009Z,18.20
2018-07-09T05:47:06.059Z,18.30
2018-07-09T05:49:35.052Z,18.40
2018-07-09T05:52:04.023Z,18.40
2018-07-09T05:54:33.103Z,18.60
2018-07-09T05:59:30.835Z,18.60
2018-07-09T06:01:59.831Z,18.70
2018-07-09T06:04:28.815Z,18.80
2018-07-09T06:06:57.806Z,18.80
2018-07-09T06:09:26.808Z,18.80
2018-07-09T06:11:55.859Z,18.70
2018-07-09T06:14:24.912Z,18.70
2018-07-09T06:16:53.907Z,18.60
2018-07-09T06:19:22.985Z,18.50
2018-07-09T06:24:20.815Z,18.70
2018-07-09T06:26:49.862Z,18.70
2018-07-09T06:31:47.652Z,18.90
2018-07-09T06:34:16.654Z,19.00
2018-07-09T06:36:45.813Z,19.10
2018-07-09T06:39:15.675Z,19.00
2018-07-09T06:41:44.691Z,19.00
2018-07-09T06:44:13.756Z,18.90
2018-07-09T06:49:11.611Z,18.50
2018-07-09T06:51:40.649Z,18.40
2018-07-09T06:54:09.596Z,18.30
2018-07-09T06:56:38.563Z,18.30
2018-07-09T06:59:08.476Z,18.40
2018-07-09T07:01:37.498Z,18.60
2018-07-09T07:04:06.475Z,18.80
2018-07-09T07:06:35.491Z,19.00
2018-07-09T07:09:05.551Z,19.30
2018-07-09T07:11:35.007Z,19.60
2018-07-09T07:14:04.211Z,20.60
2018-07-09T07:16:33.464Z,21.50
2018-07-09T07:19:02.465Z,22.30
2018-07-09T07:21:31.770Z,23.00
2018-07-09T07:24:00.762Z,22.90
2018-07-09T07:26:29.774Z,22.50
2018-07-09T07:28:58.937Z,22.70
2018-07-09T07:31:28.707Z,23.30
2018-07-09T07:33:57.782Z,25.00
2018-07-09T07:36:26.962Z,26.00
2018-07-09T07:41:25.152Z,27.80
2018-07-09T07:46:22.843Z,29.70
2018-07-09T07:48:52.035Z,28.60
2018-07-09T07:51:21.059Z,27.30
2018-07-09T07:53:50.101Z,26.20
2018-07-09T07:56:19.547Z,25.50
2018-07-09T07:58:49.468Z,25.60
2018-07-09T08:01:18.549Z,26.50
2018-07-09T08:03:47.700Z,27.40
2018-07-09T08:06:16.759Z,28.10
2018-07-09T08:08:45.735Z,28.30
2018-07-09T08:11:14.749Z,27.90
2018-07-09T08:16:12.380Z,26.30
2018-07-09T08:18:41.440Z,25.50
2018-07-09T08:21:10.443Z,24.80
2018-07-09T08:23:39.727Z,24.10
2018-07-09T08:26:08.808Z,23.40
2018-07-09T08:28:37.912Z,23.20
2018-07-09T08:31:07.278Z,23.10
2018-07-09T08:33:36.163Z,23.30
2018-07-09T08:36:05.242Z,23.50
2018-07-09T08:38:34.228Z,23.40
2018-07-09T08:41:04.036Z,23.10
2018-07-09T08:43:32.976Z,23.00
2018-07-09T08:46:01.989Z,23.00
2018-07-09T08:48:31.103Z,22.80
2018-07-09T08:55:58.780Z,22.30
2018-07-09T08:58:27.840Z,22.30
2018-07-09T09:05:55.052Z,22.50
2018-07-09T09:10:52.754Z,22.70
2018-07-09T09:15:50.610Z,22.40
2018-07-09T09:18:19.634Z,22.40
2018-07-09T09:20:48.735Z,22.40
2018-07-09T09:23:17.700Z,22.40
2018-07-09T09:25:46.892Z,22.40
2018-07-09T09:28:17.047Z,22.30
2018-07-09T09:30:46.094Z,22.30
2018-07-09T09:33:15.073Z,21.70
2018-07-09T09:35:44.123Z,21.70
2018-07-09T09:38:13.706Z,21.80
2018-07-09T09:40:42.671Z,22.20
2018-07-09T09:43:11.690Z,22.40
2018-07-09T09:45:40.639Z,22.20
2018-07-09T09:50:38.504Z,21.90
2018-07-09T09:53:08.205Z,21.70
2018-07-09T09:55:37.533Z,21.70
2018-07-09T09:58:07.223Z,21.70
2018-07-09T10:00:41.757Z,22.10
2018-07-09T10:03:10.854Z,22.20
2018-07-09T10:05:39.817Z,22.10
2018-07-09T10:08:09.251Z,22.50
2018-07-09T10:13:07.188Z,22.30
2018-07-09T10:15:36.175Z,22.40
2018-07-09T10:18:05.316Z,22.40
2018-07-09T10:20:34.323Z,22.10
2018-07-09T10:23:03.532Z,22.10
2018-07-09T10:28:01.350Z,22.30
2018-07-09T10:30:30.535Z,22.20
2018-07-09T10:32:59.555Z,22.20
2018-07-09T10:35:29.464Z,22.30
2018-07-09T10:37:58.444Z,21.80
2018-07-09T10:40:27.439Z,21.50
2018-07-09T10:42:56.404Z,21.70
2018-07-09T10:45:25.413Z,22.00
2018-07-09T10:47:54.732Z,22.10
2018-07-09T10:55:21.503Z,21.90
2018-07-09T10:57:50.584Z,21.70
2018-07-09T11:00:19.852Z,21.50
2018-07-09T11:05:17.772Z,21.40
2018-07-09T11:07:46.845Z,21.40
2018-07-09T11:10:15.790Z,21.50
2018-07-09T11:12:45.100Z,21.70
2018-07-09T11:15:14.055Z,21.60
2018-07-09T11:17:43.072Z,21.40
2018-07-09T11:20:12.051Z,21.30
2018-07-09T11:22:41.045Z,21.10
2018-07-09T11:25:10.015Z,20.90
2018-07-09T11:27:39.008Z,20.90
2018-07-09T11:30:08.048Z,21.10
2018-07-09T11:32:37.062Z,21.30
2018-07-09T11:35:06.050Z,21.80
2018-07-09T11:37:35.020Z,21.90
2018-07-09T11:40:04.003Z,21.80
2018-07-09T11:45:01.679Z,21.80
2018-07-09T11:47:31.254Z,22.00
2018-07-09T11:50:00.264Z,21.60
2018-07-09T11:52:29.292Z,21.60
2018-07-09T11:54:58.452Z,21.70
2018-07-09T11:57:27.651Z,21.80
2018-07-09T11:59:56.821Z,21.60
2018-07-09T12:02:25.913Z,21.30
2018-07-09T12:04:55.099Z,21.10
2018-07-09T12:07:24.064Z,20.90
2018-07-09T12:09:53.278Z,21.00
2018-07-09T12:17:19.727Z,21.40
2018-07-09T12:19:48.779Z,21.10
2018-07-09T12:29:43.916Z,21.00
2018-07-09T12:32:13.820Z,20.90
2018-07-09T12:34:42.849Z,20.90
2018-07-09T12:37:11.983Z,20.90
2018-07-09T12:39:40.963Z,21.10
2018-07-09T12:42:09.972Z,21.20
2018-07-09T12:44:39.238Z,20.90
2018-07-09T12:47:08.219Z,20.90
2018-07-09T12:52:05.964Z,20.70
2018-07-09T12:54:34.926Z,20.60
2018-07-09T12:57:03.932Z,20.50
2018-07-09T12:59:32.949Z,20.50
2018-07-09T13:02:01.939Z,20.50
2018-07-09T13:04:30.952Z,20.40
2018-07-09T13:07:00.140Z,20.50
2018-07-09T13:09:29.288Z,20.60
2018-07-09T13:14:27.466Z,20.30
2018-07-09T13:16:56.447Z,20.10
2018-07-09T13:21:54.096Z,20.70
2018-07-09T13:24:23.068Z,20.80
2018-07-09T13:26:52.100Z,20.50
2018-07-09T13:29:21.091Z,20.30
2018-07-09T13:31:50.212Z,20.40
2018-07-09T13:34:19.290Z,20.60
2018-07-09T13:36:48.916Z,20.40
2018-07-09T13:39:18.331Z,20.30
2018-07-09T13:41:47.984Z,20.20
2018-07-09T13:44:17.015Z,20.50
2018-07-09T13:46:46.077Z,20.60
2018-07-09T13:49:15.024Z,20.60
2018-07-09T13:54:12.684Z,20.70
2018-07-09T13:56:41.706Z,20.80
2018-07-09T13:59:10.666Z,20.70
2018-07-09T14:01:39.635Z,20.60
2018-07-09T14:06:37.723Z,20.90
2018-07-09T14:09:07.196Z,21.10
2018-07-09T14:11:36.176Z,21.40
2018-07-09T14:14:05.743Z,21.00
2018-07-09T14:16:34.717Z,21.10
2018-07-09T14:20:14.980Z,20.70
2018-07-09T14:22:43.976Z,20.60
2018-07-09T14:25:12.973Z,20.60
2018-07-09T14:30:10.991Z,20.60
2018-07-09T14:32:40.234Z,20.60
2018-07-09T14:35:09.447Z,20.50
2018-07-09T14:37:38.564Z,20.40
2018-07-09T14:40:07.689Z,20.30
2018-07-09T14:42:36.851Z,20.20
2018-07-09T14:45:06.035Z,20.20
2018-07-09T14:50:03.918Z,20.10
2018-07-09T14:55:01.570Z,20.20
2018-07-09T14:57:30.495Z,20.30
2018-07-09T15:02:28.203Z,19.90
2018-07-09T15:04:57.276Z,19.80
2018-07-09T15:07:26.278Z,19.80
2018-07-09T15:09:55.337Z,19.70
2018-07-09T15:14:53.080Z,19.80
2018-07-09T15:17:22.138Z,19.80
2018-07-09T15:22:19.876Z,19.60
2018-07-09T15:24:48.960Z,19.50
2018-07-09T15:27:18.025Z,19.40
2018-07-09T15:32:27.446Z,19.30
2018-07-09T15:37:25.276Z,19.00
2018-07-09T15:39:54.364Z,18.60
2018-07-09T15:42:23.386Z,18.30
2018-07-09T15:44:52.511Z,18.20
2018-07-09T15:47:21.583Z,18.40
2018-07-09T15:49:50.616Z,18.40
2018-07-09T15:52:19.800Z,18.30
2018-07-09T15:54:49.025Z,18.20
2018-07-09T15:57:18.248Z,18.20
2018-07-09T15:59:47.395Z,18.30
2018-07-09T16:02:16.977Z,18.50
2018-07-09T16:04:45.995Z,18.60
2018-07-09T16:07:14.986Z,18.60
2018-07-09T16:12:12.715Z,18.90
2018-07-09T16:14:41.762Z,19.00
2018-07-09T16:17:10.780Z,19.00
2018-07-09T16:22:08.559Z,18.90
2018-07-09T16:24:37.762Z,18.80
2018-07-09T16:27:06.877Z,18.70
2018-07-09T16:29:35.912Z,18.80
2018-07-09T16:34:33.762Z,18.70
2018-07-09T16:37:02.755Z,18.60
2018-07-09T16:39:31.760Z,18.60
2018-07-09T16:42:00.752Z,18.60
2018-07-09T16:44:29.816Z,18.60
2018-07-09T16:46:58.880Z,18.50
2018-07-09T16:49:27.884Z,18.20
2018-07-09T16:51:56.958Z,18.10
2018-07-09T16:54:25.935Z,18.20
2018-07-09T16:56:54.931Z,18.10
2018-07-09T16:59:23.916Z,18.00
2018-07-09T17:01:52.951Z,18.00
2018-07-09T17:04:21.904Z,17.90
2018-07-09T17:06:50.898Z,17.80
2018-07-09T17:09:20.366Z,17.90
2018-07-09T17:11:49.381Z,18.00
2018-07-09T17:14:18.399Z,17.80
2018-07-09T17:16:47.423Z,17.80
2018-07-09T17:21:46.155Z,17.80
2018-07-09T17:24:15.505Z,17.70
2018-07-09T17:26:44.621Z,17.50
2018-07-09T17:36:39.888Z,17.30
2018-07-09T17:39:08.960Z,17.30
2018-07-09T17:41:38.211Z,17.30
2018-07-09T17:46:36.829Z,17.30
2018-07-09T17:49:06.174Z,17.20
2018-07-09T17:51:35.241Z,17.10
2018-07-09T17:54:04.233Z,17.10
2018-07-09T17:56:33.242Z,17.20
2018-07-09T17:59:02.301Z,17.20
2018-07-09T18:01:31.317Z,17.20
2018-07-09T18:04:01.101Z,17.30
2018-07-09T18:06:30.823Z,17.40
2018-07-09T18:09:00.533Z,17.40
2018-07-09T18:11:29.590Z,17.30
2018-07-09T18:13:58.658Z,17.30
2018-07-09T18:16:29.158Z,17.30
2018-07-09T18:18:58.344Z,17.30
2018-07-09T18:21:27.738Z,17.20
2018-07-09T18:23:56.955Z,17.10
2018-07-09T18:28:55.247Z,17.00
2018-07-09T18:31:24.543Z,17.00
2018-07-09T18:33:54.255Z,16.90
2018-07-09T18:36:23.691Z,16.80
2018-07-09T18:38:52.893Z,16.80
2018-07-09T18:41:22.315Z,16.80
2018-07-09T18:43:52.227Z,16.60
2018-07-09T18:46:22.140Z,16.60
2018-07-09T18:48:51.349Z,16.50
2018-07-09T18:51:20.463Z,16.50
2018-07-09T18:53:49.556Z,16.50
2018-07-09T18:56:18.650Z,16.50
2018-07-09T18:58:47.978Z,16.40
2018-07-09T19:01:17.112Z,16.40
2018-07-09T19:03:46.595Z,16.30
2018-07-09T19:06:34.744Z,16.30
2018-07-09T19:09:04.566Z,16.20
2018-07-09T19:11:33.729Z,16.20
2018-07-09T19:16:31.976Z,16.20
2018-07-09T19:19:12.493Z,16.30
2018-07-09T19:24:15.224Z,16.30
2018-07-09T19:31:40.192Z,16.30
2018-07-09T19:34:12.318Z,16.30
2018-07-09T19:36:40.443Z,16.30
2018-07-09T19:39:09.301Z,16.30
2018-07-09T19:41:37.656Z,16.30
2018-07-09T19:44:05.702Z,16.20
2018-07-09T19:49:02.759Z,16.20
2018-07-09T19:51:30.934Z,16.00
2018-07-09T19:56:27.456Z,15.80
2018-07-09T20:01:23.824Z,15.80
2018-07-09T20:03:51.966Z,15.90
2018-07-09T20:06:20.811Z,15.70
2018-07-09T20:08:54.305Z,15.70
2018-07-09T20:11:27.756Z,15.70
2018-07-09T20:14:03.017Z,15.70
2018-07-09T20:16:36.458Z,15.60
2018-07-09T20:19:04.552Z,15.60
2018-07-09T20:21:32.624Z,15.60
2018-07-09T20:24:02.487Z,15.60
2018-07-09T20:26:30.558Z,15.60
2018-07-09T20:31:26.837Z,15.60
2018-07-09T20:33:55.265Z,15.50
2018-07-09T20:36:24.167Z,15.50
2018-07-09T20:38:52.230Z,15.50
2018-07-09T20:41:20.521Z,15.50
2018-07-09T20:43:48.659Z,15.50
2018-07-09T20:48:44.970Z,15.50
2018-07-09T20:51:13.071Z,15.50
2018-07-09T20:53:41.136Z,15.40
2018-07-09T21:01:06.042Z,15.40
2018-07-09T21:06:02.311Z,15.40
2018-07-09T21:08:30.394Z,15.40
2018-07-09T21:10:58.470Z,15.40
2018-07-09T21:15:58.712Z,15.40
2018-07-09T21:20:55.408Z,15.40
2018-07-09T21:25:51.847Z,15.30
2018-07-09T21:28:19.907Z,15.30
2018-07-09T21:30:47.951Z,15.20
2018-07-09T21:33:15.981Z,15.10
2018-07-09T21:35:44.047Z,15.10
2018-07-09T21:38:12.068Z,15.00
2018-07-09T21:40:40.071Z,15.00
2018-07-09T21:43:08.111Z,14.90
2018-07-09T21:50:33.123Z,14.60
2018-07-09T21:53:01.182Z,14.50
2018-07-09T21:55:29.215Z,14.30
2018-07-09T21:57:57.488Z,14.20
2018-07-09T22:00:25.534Z,14.10
2018-07-09T22:07:50.914Z,13.80
2018-07-09T22:10:19.072Z,13.70
2018-07-09T22:15:15.400Z,13.70
2018-07-09T22:17:43.383Z,13.70
2018-07-09T22:20:11.459Z,13.80
2018-07-09T22:22:39.485Z,13.80
2018-07-09T22:27:35.652Z,14.10
2018-07-09T22:32:33.003Z,14.20
2018-07-09T22:35:01.992Z,14.30
2018-07-09T22:37:31.340Z,14.20
2018-07-09T22:42:29.235Z,14.10
2018-07-09T22:44:58.369Z,14.00
2018-07-09T22:47:27.393Z,13.90
2018-07-09T22:49:56.449Z,13.80
2018-07-09T22:52:25.441Z,13.70
2018-07-09T22:55:05.921Z,13.60
2018-07-09T22:57:35.111Z,13.50
2018-07-09T23:00:04.127Z,13.50
2018-07-09T23:02:32.900Z,13.50
2018-07-09T23:05:01.854Z,13.40
2018-07-09T23:07:30.923Z,13.40
2018-07-09T23:10:11.202Z,13.40
2018-07-09T23:17:03.787Z,13.40
2018-07-09T23:19:42.940Z,13.50
2018-07-09T23:22:15.245Z,13.60
2018-07-09T23:24:43.340Z,13.60
2018-07-09T23:27:11.348Z,13.70
2018-07-09T23:29:39.344Z,13.80
2018-07-09T23:32:07.398Z,13.90
2018-07-09T23:34:35.501Z,14.00
2018-07-09T23:37:03.551Z,14.10
2018-07-09T23:39:32.499Z,14.20
2018-07-09T23:42:00.572Z,14.20
2018-07-09T23:44:28.555Z,14.30
2018-07-09T23:46:56.626Z,14.30
2018-07-09T23:49:24.789Z,14.30
2018-07-09T23:51:53.105Z,14.30
2018-07-09T23:54:21.181Z,14.30
